createdAt,value
2018-03-26T00:00:41.574Z,985.77
2018-03-26T00:02:38.446Z,985.71
2018-03-26T00:03:38.406Z,985.75
2018-03-26T00:05:35.280Z,985.80
2018-03-26T00:06:35.235Z,985.76
2018-03-26T00:08:30.432Z,985.78
2018-03-26T00:09:30.395Z,985.75
2018-03-26T00:11:24.765Z,985.75
2018-03-26T00:12:24.712Z,985.73
2018-03-26T00:14:19.076Z,985.77
2018-03-26T00:15:19.038Z,985.77
2018-03-26T00:17:13.403Z,985.76
2018-03-26T00:18:13.361Z,985.74
2018-03-26T00:20:06.891Z,985.74
2018-03-26T00:21:06.852Z,985.75
2018-03-26T00:23:03.748Z,985.76
2018-03-26T00:24:03.681Z,985.77
2018-03-26T00:26:00.546Z,985.77
2018-03-26T00:27:00.503Z,985.79
2018-03-26T00:28:54.866Z,985.78
2018-03-26T00:29:54.823Z,985.77
2018-03-26T00:31:49.197Z,985.77
2018-03-26T00:32:49.150Z,985.73
2018-03-26T00:34:43.578Z,985.73
2018-03-26T00:35:43.473Z,985.74
2018-03-26T00:37:37.834Z,985.72
2018-03-26T00:38:37.799Z,985.74
2018-03-26T00:40:32.163Z,985.71
2018-03-26T00:41:32.122Z,985.74
2018-03-26T00:43:28.039Z,985.73
2018-03-26T00:44:27.996Z,985.77
2018-03-26T00:46:24.870Z,985.75
2018-03-26T00:47:24.825Z,985.76
2018-03-26T00:49:19.184Z,985.75
2018-03-26T00:50:19.144Z,985.76
2018-03-26T00:52:14.086Z,985.77
2018-03-26T00:53:13.473Z,985.76
2018-03-26T00:55:10.379Z,985.76
2018-03-26T00:56:10.328Z,985.83
2018-03-26T00:58:04.702Z,985.83
2018-03-26T00:59:04.656Z,985.83
2018-03-26T01:00:59.023Z,985.81
2018-03-26T01:01:58.978Z,985.83
2018-03-26T01:03:53.351Z,985.80
2018-03-26T01:04:53.308Z,985.80
2018-03-26T01:06:50.176Z,985.79
2018-03-26T01:07:50.135Z,985.79
2018-03-26T01:09:44.496Z,985.80
2018-03-26T01:10:44.460Z,985.81
2018-03-26T01:12:38.954Z,985.81
2018-03-26T01:13:38.901Z,985.82
2018-03-26T01:15:35.715Z,985.83
2018-03-26T01:16:35.675Z,985.84
2018-03-26T01:18:29.146Z,985.84
2018-03-26T01:19:29.110Z,985.86
2018-03-26T01:21:23.465Z,985.84
2018-03-26T01:22:23.424Z,985.87
2018-03-26T01:24:17.781Z,985.87
2018-03-26T01:25:17.742Z,985.88
2018-03-26T01:27:12.105Z,985.91
2018-03-26T01:28:12.064Z,985.93
2018-03-26T01:30:09.822Z,985.92
2018-03-26T01:31:09.775Z,985.96
2018-03-26T01:33:04.143Z,985.94
2018-03-26T01:34:04.097Z,985.95
2018-03-26T01:36:00.981Z,985.90
2018-03-26T01:37:00.960Z,985.89
2018-03-26T01:38:55.291Z,985.89
2018-03-26T01:39:55.251Z,985.90
2018-03-26T01:41:49.609Z,985.92
2018-03-26T01:42:49.566Z,985.91
2018-03-26T01:44:43.997Z,985.90
2018-03-26T01:45:43.892Z,985.93
2018-03-26T01:47:38.260Z,985.94
2018-03-26T01:48:38.214Z,985.95
2018-03-26T01:50:32.583Z,985.95
2018-03-26T01:51:32.541Z,985.93
2018-03-26T01:53:29.411Z,985.91
2018-03-26T01:54:29.371Z,985.94
2018-03-26T01:56:24.564Z,985.95
2018-03-26T01:57:24.524Z,985.99
2018-03-26T01:59:21.377Z,985.97
2018-03-26T02:00:21.336Z,985.95
2018-03-26T02:02:15.698Z,985.93
2018-03-26T02:03:15.658Z,985.96
2018-03-26T02:05:12.526Z,985.98
2018-03-26T02:06:12.485Z,985.97
2018-03-26T02:08:06.376Z,985.97
2018-03-26T02:09:06.316Z,985.99
2018-03-26T02:10:59.723Z,986.00
2018-03-26T02:11:59.687Z,985.99
2018-03-26T02:13:56.540Z,985.90
2018-03-26T02:14:56.497Z,985.94
2018-03-26T02:16:53.372Z,985.88
2018-03-26T02:17:53.322Z,985.92
2018-03-26T02:19:47.689Z,985.95
2018-03-26T02:20:47.642Z,985.94
2018-03-26T02:22:44.549Z,985.96
2018-03-26T02:23:44.468Z,985.95
2018-03-26T02:25:38.831Z,985.98
2018-03-26T02:26:38.832Z,986.00
2018-03-26T02:28:33.160Z,986.01
2018-03-26T02:29:33.111Z,985.97
2018-03-26T02:31:27.491Z,985.99
2018-03-26T02:32:27.454Z,986.03
2018-03-26T02:34:24.316Z,986.05
2018-03-26T02:35:24.277Z,986.06
2018-03-26T02:37:18.642Z,986.05
2018-03-26T02:38:18.600Z,986.02
2018-03-26T02:40:15.463Z,986.05
2018-03-26T02:41:15.424Z,986.04
2018-03-26T02:43:09.790Z,986.08
2018-03-26T02:44:09.751Z,986.04
2018-03-26T02:46:04.110Z,986.09
2018-03-26T02:47:04.068Z,986.07
2018-03-26T02:49:00.944Z,986.07
2018-03-26T02:50:00.901Z,986.07
2018-03-26T02:51:57.769Z,986.12
2018-03-26T02:52:57.725Z,986.14
2018-03-26T02:54:51.102Z,986.23
2018-03-26T02:55:51.042Z,986.23
2018-03-26T02:57:45.409Z,986.29
2018-03-26T02:58:45.363Z,986.29
2018-03-26T03:00:39.735Z,986.17
2018-03-26T03:01:39.693Z,986.18
2018-03-26T03:03:36.553Z,986.20
2018-03-26T03:04:36.517Z,986.22
2018-03-26T03:06:30.880Z,986.22
2018-03-26T03:07:30.846Z,986.22
2018-03-26T03:09:28.278Z,986.20
2018-03-26T03:10:27.658Z,986.18
2018-03-26T03:12:22.887Z,986.20
2018-03-26T03:13:22.839Z,986.25
2018-03-26T03:15:17.209Z,986.25
2018-03-26T03:16:17.158Z,986.27
2018-03-26T03:18:13.032Z,986.32
2018-03-26T03:19:12.984Z,986.32
2018-03-26T03:21:07.368Z,986.31
2018-03-26T03:22:07.344Z,986.31
2018-03-26T03:24:00.673Z,986.30
2018-03-26T03:25:00.640Z,986.29
2018-03-26T03:26:54.171Z,986.33
2018-03-26T03:27:54.131Z,986.32
2018-03-26T03:29:47.506Z,986.33
2018-03-26T03:30:47.458Z,986.33
2018-03-26T03:32:40.872Z,986.37
2018-03-26T03:33:40.831Z,986.33
2018-03-26T03:35:35.185Z,986.32
2018-03-26T03:36:35.150Z,986.31
2018-03-26T03:38:28.551Z,986.35
2018-03-26T03:39:28.515Z,986.32
2018-03-26T03:41:21.881Z,986.34
2018-03-26T03:42:21.824Z,986.38
2018-03-26T03:44:17.673Z,986.36
2018-03-26T03:45:17.633Z,986.38
2018-03-26T03:47:10.986Z,986.42
2018-03-26T03:48:10.947Z,986.40
2018-03-26T03:50:05.096Z,986.43
2018-03-26T03:51:05.053Z,986.45
2018-03-26T03:52:58.401Z,986.45
2018-03-26T03:53:58.363Z,986.49
2018-03-26T03:55:51.814Z,986.51
2018-03-26T03:56:51.781Z,986.54
2018-03-26T03:58:48.628Z,986.57
2018-03-26T03:59:48.589Z,986.55
2018-03-26T04:01:41.934Z,986.61
2018-03-26T04:02:41.901Z,986.59
2018-03-26T04:04:35.290Z,986.58
2018-03-26T04:05:35.206Z,986.58
2018-03-26T04:07:29.446Z,986.56
2018-03-26T04:08:29.437Z,986.55
2018-03-26T04:10:23.754Z,986.59
2018-03-26T04:11:23.711Z,986.56
2018-03-26T04:13:17.093Z,986.58
2018-03-26T04:14:17.033Z,986.57
2018-03-26T04:16:10.491Z,986.59
2018-03-26T04:17:10.461Z,986.57
2018-03-26T04:19:03.823Z,986.59
2018-03-26T04:20:03.783Z,986.56
2018-03-26T04:21:59.695Z,986.59
2018-03-26T04:22:59.636Z,986.56
2018-03-26T04:24:55.579Z,986.60
2018-03-26T04:25:55.534Z,986.57
2018-03-26T04:27:48.913Z,986.60
2018-03-26T04:28:48.874Z,986.58
2018-03-26T04:30:43.235Z,986.59
2018-03-26T04:31:43.197Z,986.65
2018-03-26T04:33:36.569Z,986.64
2018-03-26T04:34:36.546Z,986.62
2018-03-26T04:36:29.919Z,986.66
2018-03-26T04:37:29.879Z,986.66
2018-03-26T04:39:24.237Z,986.69
2018-03-26T04:40:24.194Z,986.69
2018-03-26T04:42:17.598Z,986.73
2018-03-26T04:43:17.517Z,986.77
2018-03-26T04:45:13.432Z,986.75
2018-03-26T04:46:13.391Z,986.77
2018-03-26T04:48:07.776Z,986.76
2018-03-26T04:49:07.722Z,986.76
2018-03-26T04:51:02.094Z,986.78
2018-03-26T04:52:02.054Z,986.79
2018-03-26T04:53:58.911Z,986.79
2018-03-26T04:54:58.868Z,986.82
2018-03-26T04:56:53.229Z,986.85
2018-03-26T04:57:53.192Z,986.87
2018-03-26T04:59:50.046Z,986.86
2018-03-26T05:00:50.011Z,986.84
2018-03-26T05:02:44.935Z,986.83
2018-03-26T05:03:44.329Z,986.86
2018-03-26T05:05:41.200Z,986.88
2018-03-26T05:06:41.151Z,986.91
2018-03-26T05:08:35.513Z,986.95
2018-03-26T05:09:35.474Z,986.93
2018-03-26T05:11:29.837Z,986.96
2018-03-26T05:12:29.796Z,987.01
2018-03-26T05:14:24.202Z,986.99
2018-03-26T05:15:24.113Z,986.95
2018-03-26T05:17:20.987Z,987.02
2018-03-26T05:18:20.936Z,987.01
2018-03-26T05:20:15.295Z,987.00
2018-03-26T05:21:15.256Z,987.00
2018-03-26T05:23:09.667Z,987.00
2018-03-26T05:24:09.578Z,987.02
2018-03-26T05:26:04.788Z,987.04
2018-03-26T05:27:04.746Z,987.03
2018-03-26T05:28:59.108Z,987.06
2018-03-26T05:29:59.066Z,987.07
2018-03-26T05:31:53.422Z,987.13
2018-03-26T05:32:53.379Z,987.10
2018-03-26T05:34:47.756Z,987.12
2018-03-26T05:35:47.715Z,987.13
2018-03-26T05:37:42.073Z,987.11
2018-03-26T05:38:42.031Z,987.10
2018-03-26T05:40:36.386Z,987.16
2018-03-26T05:41:36.348Z,987.15
2018-03-26T05:43:30.754Z,987.16
2018-03-26T05:44:30.667Z,987.16
2018-03-26T05:46:24.024Z,987.20
2018-03-26T05:47:23.978Z,987.19
2018-03-26T05:49:17.340Z,987.19
2018-03-26T05:50:17.304Z,987.21
2018-03-26T05:52:11.666Z,987.21
2018-03-26T05:53:11.615Z,987.23
2018-03-26T05:55:08.488Z,987.27
2018-03-26T05:56:08.442Z,987.23
2018-03-26T05:58:01.829Z,987.25
2018-03-26T05:59:01.766Z,987.29
2018-03-26T06:00:55.110Z,987.32
2018-03-26T06:01:55.054Z,987.30
2018-03-26T06:03:51.944Z,987.33
2018-03-26T06:04:51.923Z,987.32
2018-03-26T06:06:45.260Z,987.32
2018-03-26T06:07:45.202Z,987.33
2018-03-26T06:09:38.551Z,987.37
2018-03-26T06:10:38.509Z,987.38
2018-03-26T06:12:32.742Z,987.37
2018-03-26T06:13:32.699Z,987.39
2018-03-26T06:15:26.063Z,987.39
2018-03-26T06:16:26.017Z,987.41
2018-03-26T06:18:20.386Z,987.42
2018-03-26T06:19:20.346Z,987.41
2018-03-26T06:21:13.830Z,987.42
2018-03-26T06:22:13.752Z,987.42
2018-03-26T06:24:07.092Z,987.45
2018-03-26T06:25:07.053Z,987.43
2018-03-26T06:27:00.416Z,987.43
2018-03-26T06:28:00.379Z,987.44
2018-03-26T06:29:57.248Z,987.46
2018-03-26T06:30:57.200Z,987.49
2018-03-26T06:32:51.561Z,987.46
2018-03-26T06:33:51.520Z,987.50
2018-03-26T06:35:44.959Z,987.50
2018-03-26T06:36:44.886Z,987.52
2018-03-26T06:38:38.302Z,987.54
2018-03-26T06:39:38.224Z,987.55
2018-03-26T06:41:31.653Z,987.54
2018-03-26T06:42:31.598Z,987.54
2018-03-26T06:44:24.978Z,987.55
2018-03-26T06:45:24.913Z,987.55
2018-03-26T06:47:18.318Z,987.56
2018-03-26T06:48:18.273Z,987.59
2018-03-26T06:50:15.133Z,987.64
2018-03-26T06:51:15.090Z,987.58
2018-03-26T06:53:09.468Z,987.61
2018-03-26T06:54:09.411Z,987.62
2018-03-26T06:56:06.172Z,987.61
2018-03-26T06:57:06.125Z,987.65
2018-03-26T06:59:00.490Z,987.61
2018-03-26T07:00:00.447Z,987.63
2018-03-26T07:01:53.834Z,987.61
2018-03-26T07:02:53.787Z,987.65
2018-03-26T07:04:48.010Z,987.66
2018-03-26T07:05:47.946Z,987.64
2018-03-26T07:07:41.317Z,987.63
2018-03-26T07:08:41.265Z,987.66
2018-03-26T07:10:34.630Z,987.64
2018-03-26T07:11:34.583Z,987.66
2018-03-26T07:13:27.998Z,987.62
2018-03-26T07:14:27.923Z,987.64
2018-03-26T07:16:22.286Z,987.64
2018-03-26T07:17:22.241Z,987.67
2018-03-26T07:19:19.113Z,987.66
2018-03-26T07:20:19.071Z,987.66
2018-03-26T07:22:12.481Z,987.67
2018-03-26T07:23:12.436Z,987.68
2018-03-26T07:25:06.801Z,987.70
2018-03-26T07:26:06.762Z,987.74
2018-03-26T07:28:00.151Z,987.71
2018-03-26T07:29:00.103Z,987.74
2018-03-26T07:30:54.493Z,987.74
2018-03-26T07:31:54.434Z,987.73
2018-03-26T07:33:47.799Z,987.77
2018-03-26T07:34:47.760Z,987.77
2018-03-26T07:36:41.137Z,987.80
2018-03-26T07:37:41.092Z,987.78
2018-03-26T07:39:35.465Z,987.82
2018-03-26T07:40:35.416Z,987.82
2018-03-26T07:42:29.784Z,987.84
2018-03-26T07:43:29.738Z,987.84
2018-03-26T07:45:24.142Z,987.86
2018-03-26T07:46:24.107Z,987.83
2018-03-26T07:48:20.933Z,987.86
2018-03-26T07:49:20.895Z,987.87
2018-03-26T07:51:15.259Z,987.88
2018-03-26T07:52:15.213Z,987.92
2018-03-26T07:54:12.145Z,987.92
2018-03-26T07:55:12.068Z,987.91
2018-03-26T07:57:06.542Z,987.97
2018-03-26T07:58:06.386Z,987.94
2018-03-26T08:00:03.261Z,987.95
2018-03-26T08:01:03.261Z,987.95
2018-03-26T08:02:57.570Z,988.01
2018-03-26T08:03:57.532Z,987.96
2018-03-26T08:05:51.894Z,987.99
2018-03-26T08:06:51.851Z,987.96
2018-03-26T08:08:48.721Z,987.98
2018-03-26T08:09:48.682Z,988.02
2018-03-26T08:11:43.048Z,988.02
2018-03-26T08:12:43.000Z,988.05
2018-03-26T08:14:36.364Z,988.06
2018-03-26T08:15:36.324Z,988.06
2018-03-26T08:17:34.010Z,988.07
2018-03-26T08:18:33.972Z,988.11
2018-03-26T08:20:28.336Z,988.11
2018-03-26T08:21:28.297Z,988.11
2018-03-26T08:23:22.678Z,988.16
2018-03-26T08:24:22.620Z,988.18
2018-03-26T08:26:19.478Z,988.23
2018-03-26T08:27:19.441Z,988.23
2018-03-26T08:29:13.809Z,988.27
2018-03-26T08:30:13.769Z,988.28
2018-03-26T08:32:08.145Z,988.28
2018-03-26T08:33:08.104Z,988.31
2018-03-26T08:35:04.970Z,988.32
2018-03-26T08:36:04.928Z,988.30
2018-03-26T08:37:59.415Z,988.33
2018-03-26T08:38:59.274Z,988.32
2018-03-26T08:40:52.805Z,988.28
2018-03-26T08:41:52.762Z,988.34
2018-03-26T08:43:48.650Z,988.36
2018-03-26T08:44:48.605Z,988.32
2018-03-26T08:46:44.456Z,988.34
2018-03-26T08:47:44.421Z,988.33
2018-03-26T08:49:38.796Z,988.32
2018-03-26T08:50:38.740Z,988.37
2018-03-26T08:52:32.092Z,988.37
2018-03-26T08:53:32.057Z,988.39
2018-03-26T08:55:25.468Z,988.42
2018-03-26T08:56:25.427Z,988.40
2018-03-26T08:58:19.790Z,988.44
2018-03-26T08:59:19.763Z,988.45
2018-03-26T09:01:14.122Z,988.47
2018-03-26T09:02:14.086Z,988.44
2018-03-26T09:04:10.006Z,988.48
2018-03-26T09:05:09.958Z,988.47
2018-03-26T09:07:04.323Z,988.51
2018-03-26T09:08:04.278Z,988.53
2018-03-26T09:10:00.151Z,988.52
2018-03-26T09:11:00.118Z,988.56
2018-03-26T09:12:54.482Z,988.55
2018-03-26T09:13:54.438Z,988.60
2018-03-26T09:15:47.824Z,988.63
2018-03-26T09:16:47.779Z,988.61
2018-03-26T09:18:44.647Z,988.58
2018-03-26T09:19:44.607Z,988.59
2018-03-26T09:21:38.043Z,988.59
2018-03-26T09:22:38.002Z,988.62
2018-03-26T09:24:32.397Z,988.64
2018-03-26T09:25:32.328Z,988.65
2018-03-26T09:27:28.201Z,988.68
2018-03-26T09:28:28.160Z,988.66
2018-03-26T09:30:22.537Z,988.69
2018-03-26T09:31:22.492Z,988.67
2018-03-26T09:33:16.852Z,988.70
2018-03-26T09:34:16.817Z,988.67
2018-03-26T09:36:11.171Z,988.66
2018-03-26T09:37:11.132Z,988.69
2018-03-26T09:39:05.500Z,988.70
2018-03-26T09:40:05.457Z,988.72
2018-03-26T09:41:59.830Z,988.75
2018-03-26T09:42:59.796Z,988.75
2018-03-26T09:44:55.667Z,988.77
2018-03-26T09:45:55.623Z,988.75
2018-03-26T09:47:50.005Z,988.80
2018-03-26T09:48:49.952Z,988.76
2018-03-26T09:50:45.818Z,988.83
2018-03-26T09:51:45.781Z,988.75
2018-03-26T09:53:40.136Z,988.76
2018-03-26T09:54:40.155Z,988.77
2018-03-26T09:56:34.498Z,988.76
2018-03-26T09:57:34.422Z,988.77
2018-03-26T09:59:28.786Z,988.82
2018-03-26T10:00:28.740Z,988.83
2018-03-26T10:02:25.610Z,988.82
2018-03-26T10:03:25.569Z,988.84
2018-03-26T10:05:19.934Z,988.86
2018-03-26T10:06:19.885Z,988.87
2018-03-26T10:08:16.757Z,988.88
2018-03-26T10:09:16.715Z,988.84
2018-03-26T10:11:13.617Z,988.84
2018-03-26T10:12:13.574Z,988.88
2018-03-26T10:14:06.903Z,988.89
2018-03-26T10:15:06.852Z,988.89
2018-03-26T10:17:01.219Z,988.87
2018-03-26T10:18:01.177Z,988.90
2018-03-26T10:19:55.549Z,988.85
2018-03-26T10:20:55.499Z,988.95
2018-03-26T10:22:51.570Z,988.92
2018-03-26T10:23:51.519Z,988.89
2018-03-26T10:25:45.884Z,988.88
2018-03-26T10:26:45.841Z,988.89
2018-03-26T10:28:42.763Z,988.93
2018-03-26T10:29:42.677Z,988.91
2018-03-26T10:31:37.030Z,988.90
2018-03-26T10:32:36.993Z,988.93
2018-03-26T10:34:31.353Z,988.99
2018-03-26T10:35:31.310Z,989.01
2018-03-26T10:37:25.677Z,989.02
2018-03-26T10:38:25.672Z,989.02
2018-03-26T10:40:20.055Z,989.06
2018-03-26T10:41:20.014Z,989.08
2018-03-26T10:43:14.383Z,989.11
2018-03-26T10:44:14.332Z,989.11
2018-03-26T10:46:11.196Z,989.16
2018-03-26T10:47:11.158Z,989.16
2018-03-26T10:49:05.532Z,989.13
2018-03-26T10:50:05.474Z,989.16
2018-03-26T10:52:02.330Z,989.18
2018-03-26T10:53:02.290Z,989.19
2018-03-26T10:54:59.157Z,989.22
2018-03-26T10:55:59.123Z,989.23
2018-03-26T10:57:53.487Z,989.21
2018-03-26T10:58:53.440Z,989.17
2018-03-26T11:00:50.305Z,989.19
2018-03-26T11:01:50.265Z,989.20
2018-03-26T11:03:47.128Z,989.26
2018-03-26T11:04:47.085Z,989.26
2018-03-26T11:06:41.444Z,989.24
2018-03-26T11:07:41.405Z,989.26
2018-03-26T11:09:35.842Z,989.28
2018-03-26T11:10:35.736Z,989.25
2018-03-26T11:12:29.092Z,989.27
2018-03-26T11:13:29.051Z,989.24
2018-03-26T11:15:25.921Z,989.24
2018-03-26T11:16:25.878Z,989.24
2018-03-26T11:18:19.749Z,989.25
2018-03-26T11:19:19.742Z,989.25
2018-03-26T11:21:14.083Z,989.24
2018-03-26T11:22:14.028Z,989.27
2018-03-26T11:24:10.915Z,989.27
2018-03-26T11:25:10.877Z,989.25
2018-03-26T11:27:05.242Z,989.27
2018-03-26T11:28:05.206Z,989.30
2018-03-26T11:30:02.065Z,989.31
2018-03-26T11:31:02.024Z,989.32
2018-03-26T11:32:58.919Z,989.34
2018-03-26T11:33:58.883Z,989.29
2018-03-26T11:35:52.293Z,989.34
2018-03-26T11:36:52.250Z,989.34
2018-03-26T11:38:49.124Z,989.36
2018-03-26T11:39:49.086Z,989.36
2018-03-26T11:41:46.033Z,989.36
2018-03-26T11:42:45.903Z,989.37
2018-03-26T11:44:41.161Z,989.36
2018-03-26T11:45:41.104Z,989.37
2018-03-26T11:47:37.986Z,989.34
2018-03-26T11:48:37.932Z,989.38
2018-03-26T11:50:34.825Z,989.37
2018-03-26T11:51:34.842Z,989.33
2018-03-26T11:53:28.212Z,989.33
2018-03-26T11:54:28.168Z,989.33
2018-03-26T11:56:25.058Z,989.35
2018-03-26T11:57:24.995Z,989.34
2018-03-26T11:59:19.368Z,989.37
2018-03-26T12:00:19.323Z,989.40
2018-03-26T12:02:16.176Z,989.41
2018-03-26T12:03:16.134Z,989.38
2018-03-26T12:05:13.007Z,989.33
2018-03-26T12:06:12.964Z,989.34
2018-03-26T12:08:07.325Z,989.34
2018-03-26T12:09:07.282Z,989.37
2018-03-26T12:11:04.153Z,989.40
2018-03-26T12:12:04.112Z,989.40
2018-03-26T12:13:58.478Z,989.41
2018-03-26T12:14:58.433Z,989.45
2018-03-26T12:16:52.798Z,989.43
2018-03-26T12:17:52.771Z,989.46
2018-03-26T12:19:49.659Z,989.46
2018-03-26T12:22:03.976Z,989.45
2018-03-26T12:23:06.522Z,989.43
2018-03-26T12:24:58.310Z,989.44
2018-03-26T12:27:18.698Z,989.44
2018-03-26T12:28:12.614Z,989.45
2018-03-26T12:30:10.020Z,989.43
2018-03-26T12:31:09.440Z,989.46
2018-03-26T12:35:06.656Z,989.41
2018-03-26T12:36:33.551Z,989.41
2018-03-26T12:37:32.520Z,989.41
2018-03-26T12:40:01.840Z,989.42
2018-03-26T12:40:28.758Z,989.41
2018-03-26T12:42:25.683Z,989.44
2018-03-26T12:43:25.633Z,989.44
2018-03-26T12:45:20.024Z,989.44
2018-03-26T12:46:20.013Z,989.41
2018-03-26T12:48:16.826Z,989.46
2018-03-26T12:49:16.785Z,989.45
2018-03-26T12:51:11.156Z,989.44
2018-03-26T12:52:11.114Z,989.49
2018-03-26T12:54:08.030Z,989.47
2018-03-26T12:55:07.942Z,989.45
2018-03-26T12:57:02.304Z,989.51
2018-03-26T12:58:02.267Z,989.49
2018-03-26T12:59:59.142Z,989.50
2018-03-26T13:00:59.087Z,989.48
2018-03-26T13:02:52.622Z,989.50
2018-03-26T13:03:52.591Z,989.50
2018-03-26T13:05:46.942Z,989.48
2018-03-26T13:06:46.898Z,989.49
2018-03-26T13:08:43.782Z,989.47
2018-03-26T13:09:43.734Z,989.50
2018-03-26T13:11:38.091Z,989.46
2018-03-26T13:12:38.090Z,989.47
2018-03-26T13:14:32.417Z,989.44
2018-03-26T13:15:32.420Z,989.46
2018-03-26T13:17:26.747Z,989.46
2018-03-26T13:18:26.702Z,989.44
2018-03-26T13:20:23.569Z,989.46
2018-03-26T13:21:23.533Z,989.50
2018-03-26T13:23:20.410Z,989.50
2018-03-26T13:24:20.361Z,989.49
2018-03-26T13:26:14.713Z,989.52
2018-03-26T13:27:14.679Z,989.54
2018-03-26T13:29:09.625Z,989.56
2018-03-26T13:30:09.000Z,989.56
2018-03-26T13:32:06.675Z,989.57
2018-03-26T13:33:06.638Z,989.61
2018-03-26T13:35:02.618Z,989.60
2018-03-26T13:36:02.534Z,989.63
2018-03-26T13:37:56.897Z,989.64
2018-03-26T13:38:56.859Z,989.66
2018-03-26T13:40:53.712Z,989.65
2018-03-26T13:41:53.719Z,989.64
2018-03-26T13:43:48.036Z,989.62
2018-03-26T13:44:47.998Z,989.66
2018-03-26T13:46:44.863Z,989.70
2018-03-26T13:47:44.828Z,989.70
2018-03-26T13:49:40.223Z,989.68
2018-03-26T13:50:40.140Z,989.68
2018-03-26T13:52:34.504Z,989.73
2018-03-26T13:53:34.462Z,989.75
2018-03-26T13:55:29.642Z,989.72
2018-03-26T13:56:29.598Z,989.72
2018-03-26T13:58:23.984Z,989.70
2018-03-26T13:59:23.926Z,989.69
2018-03-26T14:01:20.802Z,989.68
2018-03-26T14:02:20.764Z,989.72
2018-03-26T14:04:15.118Z,989.72
2018-03-26T14:05:15.082Z,989.71
2018-03-26T14:07:09.445Z,989.71
2018-03-26T14:08:09.405Z,989.71
2018-03-26T14:10:03.766Z,989.71
2018-03-26T14:11:03.730Z,989.70
2018-03-26T14:12:58.093Z,989.71
2018-03-26T14:13:58.048Z,989.68
2018-03-26T14:15:51.461Z,989.68
2018-03-26T14:16:51.427Z,989.69
2018-03-26T14:18:47.645Z,989.64
2018-03-26T14:19:47.571Z,989.59
2018-03-26T14:21:44.439Z,989.58
2018-03-26T14:22:44.399Z,989.56
2018-03-26T14:24:39.616Z,989.60
2018-03-26T14:25:39.580Z,989.56
2018-03-26T14:27:36.449Z,989.61
2018-03-26T14:28:36.410Z,989.58
2018-03-26T14:30:30.781Z,989.59
2018-03-26T14:31:30.732Z,989.59
2018-03-26T14:33:25.173Z,989.55
2018-03-26T14:34:25.045Z,989.58
2018-03-26T14:36:19.475Z,989.59
2018-03-26T14:37:19.365Z,989.62
2018-03-26T14:39:16.232Z,989.62
2018-03-26T14:40:16.191Z,989.63
2018-03-26T14:42:10.552Z,989.61
2018-03-26T14:43:10.555Z,989.65
2018-03-26T14:45:07.394Z,989.62
2018-03-26T14:46:07.369Z,989.66
2018-03-26T14:48:01.702Z,989.62
2018-03-26T14:49:01.662Z,989.59
2018-03-26T14:50:56.028Z,989.63
2018-03-26T14:51:55.993Z,989.57
2018-03-26T14:53:51.973Z,989.53
2018-03-26T14:54:51.926Z,989.52
2018-03-26T14:56:45.298Z,989.51
2018-03-26T14:57:45.246Z,989.51
2018-03-26T14:59:41.109Z,989.53
2018-03-26T15:00:41.067Z,989.50
2018-03-26T15:02:37.751Z,989.52
2018-03-26T15:03:37.704Z,989.54
2018-03-26T15:05:31.062Z,989.52
2018-03-26T15:06:31.025Z,989.49
2018-03-26T15:08:26.883Z,989.51
2018-03-26T15:09:26.839Z,989.50
2018-03-26T15:11:20.208Z,989.55
2018-03-26T15:12:20.163Z,989.56
2018-03-26T15:14:13.602Z,989.57
2018-03-26T15:15:13.562Z,989.56
2018-03-26T15:17:09.456Z,989.59
2018-03-26T15:18:09.374Z,989.59
2018-03-26T15:20:02.861Z,989.58
2018-03-26T15:21:02.818Z,989.55
2018-03-26T15:22:56.221Z,989.58
2018-03-26T15:23:56.174Z,989.54
2018-03-26T15:25:49.537Z,989.52
2018-03-26T15:26:49.498Z,989.56
2018-03-26T15:28:43.899Z,989.55
2018-03-26T15:29:43.860Z,989.50
2018-03-26T15:31:37.228Z,989.54
2018-03-26T15:32:37.186Z,989.52
2018-03-26T15:34:33.041Z,989.54
2018-03-26T15:35:32.999Z,989.53
2018-03-26T15:37:26.360Z,989.53
2018-03-26T15:38:26.313Z,989.56
2018-03-26T15:40:19.671Z,989.51
2018-03-26T15:41:19.633Z,989.53
2018-03-26T15:43:14.014Z,989.52
2018-03-26T15:44:13.960Z,989.49
2018-03-26T15:46:09.968Z,989.54
2018-03-26T15:47:09.907Z,989.53
2018-03-26T15:49:03.435Z,989.53
2018-03-26T15:50:03.396Z,989.53
2018-03-26T15:51:56.775Z,989.59
2018-03-26T15:52:56.733Z,989.55
2018-03-26T15:54:50.122Z,989.59
2018-03-26T15:55:50.054Z,989.61
2018-03-26T15:57:43.476Z,989.56
2018-03-26T15:58:43.375Z,989.55
2018-03-26T16:00:39.245Z,989.59
2018-03-26T16:01:39.200Z,989.62
2018-03-26T16:03:35.057Z,989.64
2018-03-26T16:04:35.018Z,989.64
2018-03-26T16:06:28.383Z,989.66
2018-03-26T16:07:28.341Z,989.65
2018-03-26T16:09:21.704Z,989.68
2018-03-26T16:10:21.670Z,989.70
2018-03-26T16:12:15.047Z,989.69
2018-03-26T16:13:15.010Z,989.68
2018-03-26T16:15:08.359Z,989.71
2018-03-26T16:16:08.320Z,989.65
2018-03-26T16:18:01.699Z,989.68
2018-03-26T16:19:01.689Z,989.69
2018-03-26T16:20:57.505Z,989.66
2018-03-26T16:21:57.460Z,989.68
2018-03-26T16:23:50.811Z,989.66
2018-03-26T16:24:50.775Z,989.66
2018-03-26T16:26:44.139Z,989.63
2018-03-26T16:27:44.094Z,989.66
2018-03-26T16:29:37.485Z,989.68
2018-03-26T16:30:37.409Z,989.67
2018-03-26T16:32:30.918Z,989.72
2018-03-26T16:33:30.871Z,989.73
2018-03-26T16:35:26.741Z,989.70
2018-03-26T16:36:26.694Z,989.77
2018-03-26T16:38:20.073Z,989.77
2018-03-26T16:39:20.013Z,989.80
2018-03-26T16:41:13.444Z,989.81
2018-03-26T16:42:13.332Z,989.82
2018-03-26T16:44:06.783Z,989.83
2018-03-26T16:45:06.737Z,989.84
2018-03-26T16:47:00.962Z,989.86
2018-03-26T16:48:00.925Z,989.90
2018-03-26T16:49:54.318Z,989.90
2018-03-26T16:50:54.247Z,989.89
2018-03-26T16:52:50.105Z,989.92
2018-03-26T16:53:50.057Z,989.92
2018-03-26T16:55:43.432Z,989.94
2018-03-26T16:56:43.386Z,989.95
2018-03-26T16:58:36.771Z,989.95
2018-03-26T16:59:36.696Z,989.97
2018-03-26T17:01:30.058Z,989.93
2018-03-26T17:02:30.017Z,989.94
2018-03-26T17:04:25.945Z,989.97
2018-03-26T17:05:25.846Z,989.96
2018-03-26T17:07:19.419Z,989.98
2018-03-26T17:08:19.373Z,989.98
2018-03-26T17:10:15.246Z,989.99
2018-03-26T17:11:15.200Z,990.00
2018-03-26T17:13:11.067Z,990.03
2018-03-26T17:14:11.029Z,990.05
2018-03-26T17:16:04.393Z,990.06
2018-03-26T17:17:04.351Z,990.05
2018-03-26T17:18:57.714Z,990.04
2018-03-26T17:19:57.672Z,990.06
2018-03-26T17:21:53.542Z,990.03
2018-03-26T17:22:53.499Z,990.06
2018-03-26T17:24:46.926Z,990.04
2018-03-26T17:25:46.849Z,990.12
2018-03-26T17:27:41.174Z,990.14
2018-03-26T17:28:41.129Z,990.10
2018-03-26T17:30:34.024Z,990.13
2018-03-26T17:31:33.986Z,990.11
2018-03-26T17:33:29.898Z,990.14
2018-03-26T17:34:29.881Z,990.11
2018-03-26T17:36:25.691Z,990.16
2018-03-26T17:37:25.650Z,990.13
2018-03-26T17:39:21.510Z,990.16
2018-03-26T17:40:21.466Z,990.19
2018-03-26T17:42:14.823Z,990.21
2018-03-26T17:43:14.776Z,990.22
2018-03-26T17:45:08.142Z,990.20
2018-03-26T17:46:08.096Z,990.19
2018-03-26T17:48:03.981Z,990.22
2018-03-26T17:49:03.912Z,990.20
2018-03-26T17:50:57.270Z,990.25
2018-03-26T17:51:57.227Z,990.25
2018-03-26T17:53:50.580Z,990.23
2018-03-26T17:54:50.533Z,990.24
2018-03-26T17:56:43.933Z,990.25
2018-03-26T17:57:43.860Z,990.27
2018-03-26T17:59:39.738Z,990.28
2018-03-26T18:00:39.679Z,990.27
2018-03-26T18:02:33.044Z,990.31
2018-03-26T18:03:32.999Z,990.31
2018-03-26T18:05:26.366Z,990.30
2018-03-26T18:06:26.322Z,990.32
2018-03-26T18:08:22.194Z,990.31
2018-03-26T18:09:22.146Z,990.31
2018-03-26T18:11:15.499Z,990.32
2018-03-26T18:12:15.459Z,990.38
2018-03-26T18:14:08.821Z,990.37